sensor_id;sensor_type;location;lat;lon;timestamp;temperature;humidity
59961;DHT22;55902;-37.980;-63.602;2023-05-19T00:00:29;12.00;92.40
59961;DHT22;55902;-37.980;-63.602;2023-05-19T00:02:56;12.00;92.40
59961;DHT22;55902;-37.980;-63.602;2023-05-19T00:05:25;11.90;92.70
59961;DHT22;55902;-37.980;-63.602;2023-05-19T00:07:58;11.90;92.50
59961;DHT22;55902;-37.980;-63.602;2023-05-19T00:10:28;11.80;92.50
59961;DHT22;55902;-37.980;-63.602;2023-05-19T00:23:02;11.50;92.60
59961;DHT22;55902;-37.980;-63.602;2023-05-19T00:25:29;11.40;92.90
59961;DHT22;55902;-37.980;-63.602;2023-05-19T00:27:56;11.30;94.30
59961;DHT22;55902;-37.980;-63.602;2023-05-19T00:30:24;11.20;94.30
59961;DHT22;55902;-37.980;-63.602;2023-05-19T00:32:52;11.10;94.30
59961;DHT22;55902;-37.980;-63.602;2023-05-19T00:35:19;11.00;95.00
59961;DHT22;55902;-37.980;-63.602;2023-05-19T00:37:47;10.90;95.10
59961;DHT22;55902;-37.980;-63.602;2023-05-19T00:40:14;10.90;95.60
59961;DHT22;55902;-37.980;-63.602;2023-05-19T00:42:41;10.90;95.50
59961;DHT22;55902;-37.980;-63.602;2023-05-19T00:45:08;10.90;95.70
59961;DHT22;55902;-37.980;-63.602;2023-05-19T00:47:35;10.90;95.60
59961;DHT22;55902;-37.980;-63.602;2023-05-19T00:50:03;10.80;95.80
59961;DHT22;55902;-37.980;-63.602;2023-05-19T00:52:30;10.80;96.00
59961;DHT22;55902;-37.980;-63.602;2023-05-19T00:54:57;10.80;96.00
59961;DHT22;55902;-37.980;-63.602;2023-05-19T00:57:24;10.80;95.30
59961;DHT22;55902;-37.980;-63.602;2023-05-19T00:59:52;10.80;95.10
59961;DHT22;55902;-37.980;-63.602;2023-05-19T01:02:19;10.80;94.80
59961;DHT22;55902;-37.980;-63.602;2023-05-19T01:04:46;10.80;94.70
59961;DHT22;55902;-37.980;-63.602;2023-05-19T01:07:14;10.80;94.70
59961;DHT22;55902;-37.980;-63.602;2023-05-19T01:09:41;10.80;93.70
59961;DHT22;55902;-37.980;-63.602;2023-05-19T01:12:08;10.80;94.10
59961;DHT22;55902;-37.980;-63.602;2023-05-19T01:14:36;10.80;94.10
59961;DHT22;55902;-37.980;-63.602;2023-05-19T01:20:11;10.80;95.30
59961;DHT22;55902;-37.980;-63.602;2023-05-19T01:26:21;10.70;96.50
59961;DHT22;55902;-37.980;-63.602;2023-05-19T01:31:44;10.70;96.60
59961;DHT22;55902;-37.980;-63.602;2023-05-19T01:34:14;10.60;96.80
59961;DHT22;55902;-37.980;-63.602;2023-05-19T01:36:43;10.60;96.80
59961;DHT22;55902;-37.980;-63.602;2023-05-19T01:39:11;10.60;96.40
59961;DHT22;55902;-37.980;-63.602;2023-05-19T01:41:41;10.60;96.20
59961;DHT22;55902;-37.980;-63.602;2023-05-19T01:44:10;10.60;96.20
59961;DHT22;55902;-37.980;-63.602;2023-05-19T01:46:37;10.60;95.90
59961;DHT22;55902;-37.980;-63.602;2023-05-19T01:49:06;10.70;95.70
59961;DHT22;55902;-37.980;-63.602;2023-05-19T01:51:33;10.70;95.50
59961;DHT22;55902;-37.980;-63.602;2023-05-19T01:54:00;10.80;95.00
59961;DHT22;55902;-37.980;-63.602;2023-05-19T01:56:45;10.80;95.50
59961;DHT22;55902;-37.980;-63.602;2023-05-19T02:02:16;10.90;94.50
59961;DHT22;55902;-37.980;-63.602;2023-05-19T02:15:15;11.00;94.10
59961;DHT22;55902;-37.980;-63.602;2023-05-19T02:17:44;11.00;93.80
59961;DHT22;55902;-37.980;-63.602;2023-05-19T02:20:17;11.00;94.60
59961;DHT22;55902;-37.980;-63.602;2023-05-19T02:22:44;11.00;94.70
59961;DHT22;55902;-37.980;-63.602;2023-05-19T02:25:11;11.00;94.80
59961;DHT22;55902;-37.980;-63.602;2023-05-19T02:27:40;10.90;95.40
59961;DHT22;55902;-37.980;-63.602;2023-05-19T02:30:09;10.90;95.60
59961;DHT22;55902;-37.980;-63.602;2023-05-19T02:32:36;10.80;95.90
59961;DHT22;55902;-37.980;-63.602;2023-05-19T02:35:03;10.80;95.80
59961;DHT22;55902;-37.980;-63.602;2023-05-19T02:37:30;10.70;96.20
59961;DHT22;55902;-37.980;-63.602;2023-05-19T02:39:57;10.70;96.90
59961;DHT22;55902;-37.980;-63.602;2023-05-19T02:42:24;10.60;97.30
59961;DHT22;55902;-37.980;-63.602;2023-05-19T02:44:53;10.60;97.50
59961;DHT22;55902;-37.980;-63.602;2023-05-19T02:47:20;10.50;97.50
59961;DHT22;55902;-37.980;-63.602;2023-05-19T02:49:47;10.40;97.80
59961;DHT22;55902;-37.980;-63.602;2023-05-19T02:52:14;10.30;98.00
59961;DHT22;55902;-37.980;-63.602;2023-05-19T02:54:41;10.30;97.80
59961;DHT22;55902;-37.980;-63.602;2023-05-19T02:57:08;10.20;98.60
59961;DHT22;55902;-37.980;-63.602;2023-05-19T02:59:36;10.10;98.70
59961;DHT22;55902;-37.980;-63.602;2023-05-19T03:02:03;10.00;98.40
59961;DHT22;55902;-37.980;-63.602;2023-05-19T03:04:30;10.00;98.20
59961;DHT22;55902;-37.980;-63.602;2023-05-19T03:06:57;10.00;97.90
59961;DHT22;55902;-37.980;-63.602;2023-05-19T03:09:24;10.00;98.10
59961;DHT22;55902;-37.980;-63.602;2023-05-19T03:11:51;10.00;97.70
59961;DHT22;55902;-37.980;-63.602;2023-05-19T03:14:18;10.00;98.50
59961;DHT22;55902;-37.980;-63.602;2023-05-19T03:16:49;10.00;98.60
59961;DHT22;55902;-37.980;-63.602;2023-05-19T03:19:16;10.00;99.20
59961;DHT22;55902;-37.980;-63.602;2023-05-19T03:21:43;10.10;99.30
59961;DHT22;55902;-37.980;-63.602;2023-05-19T03:24:10;10.10;99.50
59961;DHT22;55902;-37.980;-63.602;2023-05-19T03:26:37;10.20;99.20
59961;DHT22;55902;-37.980;-63.602;2023-05-19T03:29:04;10.30;98.70
59961;DHT22;55902;-37.980;-63.602;2023-05-19T03:31:31;10.30;99.20
59961;DHT22;55902;-37.980;-63.602;2023-05-19T03:33:58;10.30;99.40
59961;DHT22;55902;-37.980;-63.602;2023-05-19T03:46:31;10.20;99.50
59961;DHT22;55902;-37.980;-63.602;2023-05-19T03:48:58;10.10;99.60
59961;DHT22;55902;-37.980;-63.602;2023-05-19T03:51:25;10.00;99.80
59961;DHT22;55902;-37.980;-63.602;2023-05-19T03:53:53;10.00;99.90
59961;DHT22;55902;-37.980;-63.602;2023-05-19T03:56:21;9.90;99.90
59961;DHT22;55902;-37.980;-63.602;2023-05-19T03:58:50;9.90;99.90
59961;DHT22;55902;-37.980;-63.602;2023-05-19T04:01:17;9.90;99.90
59961;DHT22;55902;-37.980;-63.602;2023-05-19T04:03:44;10.00;99.90
59961;DHT22;55902;-37.980;-63.602;2023-05-19T04:06:11;10.00;99.90
59961;DHT22;55902;-37.980;-63.602;2023-05-19T04:08:39;10.00;99.90
59961;DHT22;55902;-37.980;-63.602;2023-05-19T04:11:06;10.00;99.90
59961;DHT22;55902;-37.980;-63.602;2023-05-19T04:13:33;10.00;99.90
59961;DHT22;55902;-37.980;-63.602;2023-05-19T04:16:00;10.00;99.90
59961;DHT22;55902;-37.980;-63.602;2023-05-19T04:18:27;10.10;99.90
59961;DHT22;55902;-37.980;-63.602;2023-05-19T04:20:54;10.10;99.90
59961;DHT22;55902;-37.980;-63.602;2023-05-19T04:23:21;10.10;99.90
59961;DHT22;55902;-37.980;-63.602;2023-05-19T04:25:49;10.10;99.90
59961;DHT22;55902;-37.980;-63.602;2023-05-19T04:28:16;10.10;99.90
59961;DHT22;55902;-37.980;-63.602;2023-05-19T04:30:43;10.00;99.90
59961;DHT22;55902;-37.980;-63.602;2023-05-19T04:33:11;10.00;99.90
59961;DHT22;55902;-37.980;-63.602;2023-05-19T04:35:39;9.90;99.90
59961;DHT22;55902;-37.980;-63.602;2023-05-19T04:38:06;9.90;99.90
59961;DHT22;55902;-37.980;-63.602;2023-05-19T04:40:33;9.80;99.90
59961;DHT22;55902;-37.980;-63.602;2023-05-19T04:43:00;9.70;99.90
59961;DHT22;55902;-37.980;-63.602;2023-05-19T04:45:27;9.60;99.90
59961;DHT22;55902;-37.980;-63.602;2023-05-19T04:47:55;9.60;99.90
59961;DHT22;55902;-37.980;-63.602;2023-05-19T04:50:23;9.50;99.90
59961;DHT22;55902;-37.980;-63.602;2023-05-19T04:52:50;9.50;99.90
59961;DHT22;55902;-37.980;-63.602;2023-05-19T04:55:17;9.40;99.90
59961;DHT22;55902;-37.980;-63.602;2023-05-19T04:57:44;9.40;99.90
59961;DHT22;55902;-37.980;-63.602;2023-05-19T05:00:12;9.40;99.90
59961;DHT22;55902;-37.980;-63.602;2023-05-19T05:02:39;9.40;99.90
59961;DHT22;55902;-37.980;-63.602;2023-05-19T05:05:11;9.40;99.90
59961;DHT22;55902;-37.980;-63.602;2023-05-19T05:07:38;9.40;99.90
59961;DHT22;55902;-37.980;-63.602;2023-05-19T05:10:06;9.40;99.90
59961;DHT22;55902;-37.980;-63.602;2023-05-19T05:12:33;9.30;99.90
59961;DHT22;55902;-37.980;-63.602;2023-05-19T05:15:01;9.40;99.90
59961;DHT22;55902;-37.980;-63.602;2023-05-19T05:17:28;9.40;99.90
59961;DHT22;55902;-37.980;-63.602;2023-05-19T05:19:55;9.30;99.90
59961;DHT22;55902;-37.980;-63.602;2023-05-19T05:22:22;9.30;99.90
59961;DHT22;55902;-37.980;-63.602;2023-05-19T05:24:50;9.20;99.90
59961;DHT22;55902;-37.980;-63.602;2023-05-19T05:27:17;9.20;99.90
59961;DHT22;55902;-37.980;-63.602;2023-05-19T05:29:44;9.10;99.90
59961;DHT22;55902;-37.980;-63.602;2023-05-19T05:32:11;9.10;99.90
59961;DHT22;55902;-37.980;-63.602;2023-05-19T05:34:38;9.00;99.90
59961;DHT22;55902;-37.980;-63.602;2023-05-19T05:37:06;9.00;99.90
59961;DHT22;55902;-37.980;-63.602;2023-05-19T05:39:33;9.00;99.90
59961;DHT22;55902;-37.980;-63.602;2023-05-19T05:42:00;9.00;99.90
59961;DHT22;55902;-37.980;-63.602;2023-05-19T05:44:27;9.00;99.90
59961;DHT22;55902;-37.980;-63.602;2023-05-19T05:46:54;9.00;99.90
59961;DHT22;55902;-37.980;-63.602;2023-05-19T05:49:21;9.00;99.90
59961;DHT22;55902;-37.980;-63.602;2023-05-19T05:51:48;8.90;99.90
59961;DHT22;55902;-37.980;-63.602;2023-05-19T05:54:19;8.90;99.90
59961;DHT22;55902;-37.980;-63.602;2023-05-19T05:56:47;9.00;99.90
59961;DHT22;55902;-37.980;-63.602;2023-05-19T05:59:15;9.00;99.90
59961;DHT22;55902;-37.980;-63.602;2023-05-19T06:01:42;9.00;99.90
59961;DHT22;55902;-37.980;-63.602;2023-05-19T06:04:09;9.00;99.90
59961;DHT22;55902;-37.980;-63.602;2023-05-19T06:06:36;9.10;99.90
59961;DHT22;55902;-37.980;-63.602;2023-05-19T06:09:04;9.10;99.90
59961;DHT22;55902;-37.980;-63.602;2023-05-19T06:11:31;9.10;99.90
59961;DHT22;55902;-37.980;-63.602;2023-05-19T06:13:58;9.10;99.90
59961;DHT22;55902;-37.980;-63.602;2023-05-19T06:26:33;9.10;99.90
59961;DHT22;55902;-37.980;-63.602;2023-05-19T06:29:25;9.10;99.90
59961;DHT22;55902;-37.980;-63.602;2023-05-19T06:31:53;9.10;99.90
59961;DHT22;55902;-37.980;-63.602;2023-05-19T06:34:20;9.10;99.90
59961;DHT22;55902;-37.980;-63.602;2023-05-19T06:36:47;9.10;99.90
59961;DHT22;55902;-37.980;-63.602;2023-05-19T06:39:14;9.10;99.90
59961;DHT22;55902;-37.980;-63.602;2023-05-19T06:41:41;9.10;99.90
59961;DHT22;55902;-37.980;-63.602;2023-05-19T06:44:08;9.10;99.90
59961;DHT22;55902;-37.980;-63.602;2023-05-19T06:46:35;9.10;99.90
59961;DHT22;55902;-37.980;-63.602;2023-05-19T06:49:02;9.20;99.90
59961;DHT22;55902;-37.980;-63.602;2023-05-19T06:51:29;9.10;99.90
59961;DHT22;55902;-37.980;-63.602;2023-05-19T06:53:56;9.20;99.90
59961;DHT22;55902;-37.980;-63.602;2023-05-19T06:56:23;9.20;99.90
59961;DHT22;55902;-37.980;-63.602;2023-05-19T06:58:50;9.20;99.90
59961;DHT22;55902;-37.980;-63.602;2023-05-19T07:01:17;9.20;99.90
59961;DHT22;55902;-37.980;-63.602;2023-05-19T07:03:44;9.20;99.90
59961;DHT22;55902;-37.980;-63.602;2023-05-19T07:06:12;9.20;99.90
59961;DHT22;55902;-37.980;-63.602;2023-05-19T07:08:39;9.20;99.90
59961;DHT22;55902;-37.980;-63.602;2023-05-19T07:11:06;9.20;99.90
59961;DHT22;55902;-37.980;-63.602;2023-05-19T07:13:33;9.20;99.90
59961;DHT22;55902;-37.980;-63.602;2023-05-19T07:16:00;9.20;99.90
59961;DHT22;55902;-37.980;-63.602;2023-05-19T07:18:27;9.20;99.90
59961;DHT22;55902;-37.980;-63.602;2023-05-19T07:20:57;9.20;99.90
59961;DHT22;55902;-37.980;-63.602;2023-05-19T07:23:24;9.20;99.90
59961;DHT22;55902;-37.980;-63.602;2023-05-19T07:25:56;9.20;99.90
59961;DHT22;55902;-37.980;-63.602;2023-05-19T07:28:23;9.10;99.90
59961;DHT22;55902;-37.980;-63.602;2023-05-19T07:30:51;9.10;99.90
59961;DHT22;55902;-37.980;-63.602;2023-05-19T07:33:18;9.10;99.90
59961;DHT22;55902;-37.980;-63.602;2023-05-19T07:35:45;9.00;99.90
59961;DHT22;55902;-37.980;-63.602;2023-05-19T07:38:12;9.00;99.90
59961;DHT22;55902;-37.980;-63.602;2023-05-19T07:40:39;8.90;99.90
59961;DHT22;55902;-37.980;-63.602;2023-05-19T07:43:06;8.90;99.90
59961;DHT22;55902;-37.980;-63.602;2023-05-19T07:45:33;8.80;99.90
59961;DHT22;55902;-37.980;-63.602;2023-05-19T07:48:00;8.80;99.90
59961;DHT22;55902;-37.980;-63.602;2023-05-19T07:50:27;8.70;99.90
59961;DHT22;55902;-37.980;-63.602;2023-05-19T07:52:54;8.60;99.90
59961;DHT22;55902;-37.980;-63.602;2023-05-19T07:55:21;8.60;99.90
59961;DHT22;55902;-37.980;-63.602;2023-05-19T07:57:49;8.60;99.90
59961;DHT22;55902;-37.980;-63.602;2023-05-19T08:00:16;8.50;99.90
59961;DHT22;55902;-37.980;-63.602;2023-05-19T08:02:44;8.40;99.90
59961;DHT22;55902;-37.980;-63.602;2023-05-19T08:05:11;8.40;99.90
59961;DHT22;55902;-37.980;-63.602;2023-05-19T08:07:38;8.30;99.90
59961;DHT22;55902;-37.980;-63.602;2023-05-19T08:10:05;8.30;99.90
59961;DHT22;55902;-37.980;-63.602;2023-05-19T08:12:32;8.20;99.90
59961;DHT22;55902;-37.980;-63.602;2023-05-19T08:14:59;8.20;99.90
59961;DHT22;55902;-37.980;-63.602;2023-05-19T08:17:26;8.20;99.90
59961;DHT22;55902;-37.980;-63.602;2023-05-19T08:19:53;8.20;99.90
59961;DHT22;55902;-37.980;-63.602;2023-05-19T08:22:20;8.20;99.90
59961;DHT22;55902;-37.980;-63.602;2023-05-19T08:24:47;8.20;99.90
59961;DHT22;55902;-37.980;-63.602;2023-05-19T08:27:17;8.10;99.90
59961;DHT22;55902;-37.980;-63.602;2023-05-19T08:29:44;8.10;99.90
59961;DHT22;55902;-37.980;-63.602;2023-05-19T08:32:11;8.10;99.90
59961;DHT22;55902;-37.980;-63.602;2023-05-19T08:34:38;8.00;99.90
59961;DHT22;55902;-37.980;-63.602;2023-05-19T08:37:09;8.00;99.90
59961;DHT22;55902;-37.980;-63.602;2023-05-19T08:39:37;7.90;99.90
59961;DHT22;55902;-37.980;-63.602;2023-05-19T08:42:04;7.90;99.90
59961;DHT22;55902;-37.980;-63.602;2023-05-19T08:44:33;8.00;99.90
59961;DHT22;55902;-37.980;-63.602;2023-05-19T08:47:02;8.00;99.90
59961;DHT22;55902;-37.980;-63.602;2023-05-19T08:49:43;7.90;99.90
59961;DHT22;55902;-37.980;-63.602;2023-05-19T08:57:31;8.10;99.90
59961;DHT22;55902;-37.980;-63.602;2023-05-19T08:59:59;8.10;99.90
59961;DHT22;55902;-37.980;-63.602;2023-05-19T09:02:26;8.20;99.90
59961;DHT22;55902;-37.980;-63.602;2023-05-19T09:04:55;8.20;99.90
59961;DHT22;55902;-37.980;-63.602;2023-05-19T09:07:23;8.20;99.90
59961;DHT22;55902;-37.980;-63.602;2023-05-19T09:09:51;8.20;99.90
59961;DHT22;55902;-37.980;-63.602;2023-05-19T09:12:18;8.20;99.90
59961;DHT22;55902;-37.980;-63.602;2023-05-19T09:14:46;8.20;99.90
59961;DHT22;55902;-37.980;-63.602;2023-05-19T09:17:13;8.10;99.90
59961;DHT22;55902;-37.980;-63.602;2023-05-19T09:19:47;8.20;99.90
59961;DHT22;55902;-37.980;-63.602;2023-05-19T09:22:15;8.10;99.90
59961;DHT22;55902;-37.980;-63.602;2023-05-19T09:24:46;8.10;99.90
59961;DHT22;55902;-37.980;-63.602;2023-05-19T09:27:14;8.10;99.90
59961;DHT22;55902;-37.980;-63.602;2023-05-19T09:29:48;8.10;99.90
59961;DHT22;55902;-37.980;-63.602;2023-05-19T09:32:25;8.10;99.90
59961;DHT22;55902;-37.980;-63.602;2023-05-19T09:34:53;8.10;99.90
59961;DHT22;55902;-37.980;-63.602;2023-05-19T09:37:23;8.10;99.90
59961;DHT22;55902;-37.980;-63.602;2023-05-19T09:39:53;8.20;99.90
59961;DHT22;55902;-37.980;-63.602;2023-05-19T09:42:25;8.20;99.90
59961;DHT22;55902;-37.980;-63.602;2023-05-19T09:45:02;8.20;99.90
59961;DHT22;55902;-37.980;-63.602;2023-05-19T09:47:39;8.20;99.90
59961;DHT22;55902;-37.980;-63.602;2023-05-19T09:50:09;8.20;99.90
59961;DHT22;55902;-37.980;-63.602;2023-05-19T09:52:37;8.20;99.90
59961;DHT22;55902;-37.980;-63.602;2023-05-19T09:55:07;8.20;99.90
59961;DHT22;55902;-37.980;-63.602;2023-05-19T09:57:36;8.20;99.90
59961;DHT22;55902;-37.980;-63.602;2023-05-19T10:00:07;8.20;99.90
59961;DHT22;55902;-37.980;-63.602;2023-05-19T10:02:43;8.30;99.90
59961;DHT22;55902;-37.980;-63.602;2023-05-19T10:05:14;8.30;99.90
59961;DHT22;55902;-37.980;-63.602;2023-05-19T10:07:57;8.30;99.90
59961;DHT22;55902;-37.980;-63.602;2023-05-19T10:10:25;8.30;99.90
59961;DHT22;55902;-37.980;-63.602;2023-05-19T10:12:54;8.30;99.90
59961;DHT22;55902;-37.980;-63.602;2023-05-19T10:15:22;8.30;99.90
59961;DHT22;55902;-37.980;-63.602;2023-05-19T10:17:49;8.30;99.90
59961;DHT22;55902;-37.980;-63.602;2023-05-19T10:20:17;8.30;99.90
59961;DHT22;55902;-37.980;-63.602;2023-05-19T10:22:45;8.30;99.90
59961;DHT22;55902;-37.980;-63.602;2023-05-19T10:25:12;8.30;99.90
59961;DHT22;55902;-37.980;-63.602;2023-05-19T10:30:19;8.40;99.90
59961;DHT22;55902;-37.980;-63.602;2023-05-19T10:32:48;8.40;99.90
59961;DHT22;55902;-37.980;-63.602;2023-05-19T10:38:10;8.40;99.90
59961;DHT22;55902;-37.980;-63.602;2023-05-19T10:41:10;8.40;99.90
59961;DHT22;55902;-37.980;-63.602;2023-05-19T10:43:53;8.30;99.90
59961;DHT22;55902;-37.980;-63.602;2023-05-19T10:46:28;8.40;99.90
59961;DHT22;55902;-37.980;-63.602;2023-05-19T10:48:56;8.40;99.90
59961;DHT22;55902;-37.980;-63.602;2023-05-19T10:51:32;8.40;99.90
59961;DHT22;55902;-37.980;-63.602;2023-05-19T10:54:02;8.40;99.90
59961;DHT22;55902;-37.980;-63.602;2023-05-19T10:56:33;8.40;99.90
59961;DHT22;55902;-37.980;-63.602;2023-05-19T10:59:02;8.40;99.90
59961;DHT22;55902;-37.980;-63.602;2023-05-19T11:01:35;8.40;99.90
59961;DHT22;55902;-37.980;-63.602;2023-05-19T11:04:06;8.40;99.90
59961;DHT22;55902;-37.980;-63.602;2023-05-19T11:06:34;8.40;99.90
59961;DHT22;55902;-37.980;-63.602;2023-05-19T11:09:17;8.40;99.90
59961;DHT22;55902;-37.980;-63.602;2023-05-19T11:11:52;8.40;99.90
59961;DHT22;55902;-37.980;-63.602;2023-05-19T11:14:26;8.40;99.90
59961;DHT22;55902;-37.980;-63.602;2023-05-19T11:16:56;8.50;99.90
59961;DHT22;55902;-37.980;-63.602;2023-05-19T11:20:02;8.50;99.90
59961;DHT22;55902;-37.980;-63.602;2023-05-19T11:22:34;8.50;99.90
59961;DHT22;55902;-37.980;-63.602;2023-05-19T11:25:02;8.50;99.90
59961;DHT22;55902;-37.980;-63.602;2023-05-19T11:27:33;8.50;99.90
59961;DHT22;55902;-37.980;-63.602;2023-05-19T11:32:34;8.60;99.90
59961;DHT22;55902;-37.980;-63.602;2023-05-19T11:35:05;8.60;99.90
59961;DHT22;55902;-37.980;-63.602;2023-05-19T11:37:32;8.70;99.90
59961;DHT22;55902;-37.980;-63.602;2023-05-19T11:40:06;8.70;99.90
59961;DHT22;55902;-37.980;-63.602;2023-05-19T11:42:34;8.70;99.90
59961;DHT22;55902;-37.980;-63.602;2023-05-19T11:45:03;8.70;99.90
59961;DHT22;55902;-37.980;-63.602;2023-05-19T11:47:30;8.80;99.90
59961;DHT22;55902;-37.980;-63.602;2023-05-19T11:50:02;8.80;99.90
59961;DHT22;55902;-37.980;-63.602;2023-05-19T11:52:29;8.90;99.90
59961;DHT22;55902;-37.980;-63.602;2023-05-19T11:55:00;9.00;99.90
59961;DHT22;55902;-37.980;-63.602;2023-05-19T11:57:27;9.10;99.90
59961;DHT22;55902;-37.980;-63.602;2023-05-19T11:59:55;9.10;99.90
59961;DHT22;55902;-37.980;-63.602;2023-05-19T12:02:23;9.30;99.90
59961;DHT22;55902;-37.980;-63.602;2023-05-19T12:04:51;9.40;99.90
59961;DHT22;55902;-37.980;-63.602;2023-05-19T12:07:23;9.50;99.90
59961;DHT22;55902;-37.980;-63.602;2023-05-19T12:09:51;9.70;99.90
59961;DHT22;55902;-37.980;-63.602;2023-05-19T12:12:20;9.80;99.90
59961;DHT22;55902;-37.980;-63.602;2023-05-19T12:14:49;10.00;99.90
59961;DHT22;55902;-37.980;-63.602;2023-05-19T12:17:18;10.10;99.90
59961;DHT22;55902;-37.980;-63.602;2023-05-19T12:19:48;10.30;99.90
59961;DHT22;55902;-37.980;-63.602;2023-05-19T12:22:16;10.70;99.90
59961;DHT22;55902;-37.980;-63.602;2023-05-19T12:24:44;11.00;99.90
59961;DHT22;55902;-37.980;-63.602;2023-05-19T12:27:23;11.20;99.90
59961;DHT22;55902;-37.980;-63.602;2023-05-19T12:29:53;11.30;99.90
59961;DHT22;55902;-37.980;-63.602;2023-05-19T12:32:24;11.30;99.90
59961;DHT22;55902;-37.980;-63.602;2023-05-19T12:34:52;11.30;99.90
59961;DHT22;55902;-37.980;-63.602;2023-05-19T12:37:21;11.40;99.90
59961;DHT22;55902;-37.980;-63.602;2023-05-19T12:39:48;11.40;99.90
59961;DHT22;55902;-37.980;-63.602;2023-05-19T12:42:16;11.50;99.90
59961;DHT22;55902;-37.980;-63.602;2023-05-19T12:44:47;11.60;99.90
59961;DHT22;55902;-37.980;-63.602;2023-05-19T12:47:19;11.70;99.90
59961;DHT22;55902;-37.980;-63.602;2023-05-19T12:49:59;11.80;99.90
59961;DHT22;55902;-37.980;-63.602;2023-05-19T12:52:27;11.80;99.90
59961;DHT22;55902;-37.980;-63.602;2023-05-19T12:55:05;11.90;99.90
59961;DHT22;55902;-37.980;-63.602;2023-05-19T12:57:40;12.00;99.90
59961;DHT22;55902;-37.980;-63.602;2023-05-19T13:05:24;12.30;99.90
59961;DHT22;55902;-37.980;-63.602;2023-05-19T13:07:59;12.40;99.90
59961;DHT22;55902;-37.980;-63.602;2023-05-19T13:10:28;12.50;99.90
59961;DHT22;55902;-37.980;-63.602;2023-05-19T13:12:57;12.60;99.90
59961;DHT22;55902;-37.980;-63.602;2023-05-19T13:15:27;12.60;99.90
59961;DHT22;55902;-37.980;-63.602;2023-05-19T13:18:00;12.70;99.90
59961;DHT22;55902;-37.980;-63.602;2023-05-19T13:20:30;12.80;99.90
59961;DHT22;55902;-37.980;-63.602;2023-05-19T13:22:59;12.90;99.90
59961;DHT22;55902;-37.980;-63.602;2023-05-19T13:25:27;12.90;99.90
59961;DHT22;55902;-37.980;-63.602;2023-05-19T13:27:55;13.00;99.90
59961;DHT22;55902;-37.980;-63.602;2023-05-19T13:30:24;13.10;99.90
59961;DHT22;55902;-37.980;-63.602;2023-05-19T13:32:51;13.10;99.90
59961;DHT22;55902;-37.980;-63.602;2023-05-19T13:35:19;13.30;99.90
59961;DHT22;55902;-37.980;-63.602;2023-05-19T13:37:47;13.40;99.90
59961;DHT22;55902;-37.980;-63.602;2023-05-19T13:40:14;13.40;99.90
59961;DHT22;55902;-37.980;-63.602;2023-05-19T13:42:46;13.60;99.90
59961;DHT22;55902;-37.980;-63.602;2023-05-19T13:45:15;13.70;99.90
59961;DHT22;55902;-37.980;-63.602;2023-05-19T13:47:43;14.00;99.90
59961;DHT22;55902;-37.980;-63.602;2023-05-19T13:50:10;14.20;99.90
59961;DHT22;55902;-37.980;-63.602;2023-05-19T13:52:37;14.50;99.90
59961;DHT22;55902;-37.980;-63.602;2023-05-19T13:55:06;14.70;99.90
59961;DHT22;55902;-37.980;-63.602;2023-05-19T13:57:33;15.00;99.90
59961;DHT22;55902;-37.980;-63.602;2023-05-19T14:00:00;15.30;99.50
59961;DHT22;55902;-37.980;-63.602;2023-05-19T14:02:29;15.50;98.80
59961;DHT22;55902;-37.980;-63.602;2023-05-19T14:04:57;15.80;99.50
59961;DHT22;55902;-37.980;-63.602;2023-05-19T14:07:24;16.00;98.40
59961;DHT22;55902;-37.980;-63.602;2023-05-19T14:09:53;16.20;98.30
59961;DHT22;55902;-37.980;-63.602;2023-05-19T14:12:21;16.40;98.40
59961;DHT22;55902;-37.980;-63.602;2023-05-19T14:14:48;16.80;98.30
59961;DHT22;55902;-37.980;-63.602;2023-05-19T14:17:16;17.50;97.30
59961;DHT22;55902;-37.980;-63.602;2023-05-19T14:19:43;18.10;96.40
59961;DHT22;55902;-37.980;-63.602;2023-05-19T14:22:10;18.60;95.90
59961;DHT22;55902;-37.980;-63.602;2023-05-19T14:24:39;18.90;95.50
59961;DHT22;55902;-37.980;-63.602;2023-05-19T14:27:07;19.10;94.50
59961;DHT22;55902;-37.980;-63.602;2023-05-19T14:29:54;19.10;93.20
59961;DHT22;55902;-37.980;-63.602;2023-05-19T14:32:21;19.20;92.80
59961;DHT22;55902;-37.980;-63.602;2023-05-19T14:34:48;19.40;92.30
59961;DHT22;55902;-37.980;-63.602;2023-05-19T14:37:19;19.50;92.00
59961;DHT22;55902;-37.980;-63.602;2023-05-19T14:39:46;19.60;91.30
59961;DHT22;55902;-37.980;-63.602;2023-05-19T14:42:14;19.60;89.10
59961;DHT22;55902;-37.980;-63.602;2023-05-19T14:44:43;19.60;91.30
59961;DHT22;55902;-37.980;-63.602;2023-05-19T14:47:11;19.70;91.80
59961;DHT22;55902;-37.980;-63.602;2023-05-19T14:49:40;19.80;91.90
59961;DHT22;55902;-37.980;-63.602;2023-05-19T14:52:07;20.00;92.40
59961;DHT22;55902;-37.980;-63.602;2023-05-19T14:54:34;20.10;91.60
59961;DHT22;55902;-37.980;-63.602;2023-05-19T14:57:02;20.20;87.50
59961;DHT22;55902;-37.980;-63.602;2023-05-19T14:59:51;20.30;89.70
59961;DHT22;55902;-37.980;-63.602;2023-05-19T15:02:18;20.50;81.90
59961;DHT22;55902;-37.980;-63.602;2023-05-19T15:04:46;20.60;81.10
59961;DHT22;55902;-37.980;-63.602;2023-05-19T15:07:13;20.70;85.30
59961;DHT22;55902;-37.980;-63.602;2023-05-19T15:09:42;20.80;81.90
59961;DHT22;55902;-37.980;-63.602;2023-05-19T15:12:11;20.80;82.10
59961;DHT22;55902;-37.980;-63.602;2023-05-19T15:14:38;20.80;83.10
59961;DHT22;55902;-37.980;-63.602;2023-05-19T15:17:05;20.80;86.20
59961;DHT22;55902;-37.980;-63.602;2023-05-19T15:39:42;24.90;68.50
59961;DHT22;55902;-37.980;-63.602;2023-05-19T15:42:10;24.90;57.40
59961;DHT22;55902;-37.980;-63.602;2023-05-19T15:44:58;25.10;62.20
59961;DHT22;55902;-37.980;-63.602;2023-05-19T15:47:26;25.10;60.10
59961;DHT22;55902;-37.980;-63.602;2023-05-19T15:49:59;25.10;60.10
59961;DHT22;55902;-37.980;-63.602;2023-05-19T15:52:31;25.30;60.90
59961;DHT22;55902;-37.980;-63.602;2023-05-19T15:54:59;25.50;56.90
59961;DHT22;55902;-37.980;-63.602;2023-05-19T15:57:26;25.70;63.30
59961;DHT22;55902;-37.980;-63.602;2023-05-19T15:59:53;26.00;59.00
59961;DHT22;55902;-37.980;-63.602;2023-05-19T16:02:21;26.30;63.10
59961;DHT22;55902;-37.980;-63.602;2023-05-19T16:04:48;26.60;63.50
59961;DHT22;55902;-37.980;-63.602;2023-05-19T16:07:15;26.80;60.40
59961;DHT22;55902;-37.980;-63.602;2023-05-19T16:09:43;26.90;58.00
59961;DHT22;55902;-37.980;-63.602;2023-05-19T16:12:10;27.20;60.00
59961;DHT22;55902;-37.980;-63.602;2023-05-19T16:14:37;27.40;62.00
59961;DHT22;55902;-37.980;-63.602;2023-05-19T16:17:04;27.70;63.00
59961;DHT22;55902;-37.980;-63.602;2023-05-19T16:19:39;27.90;55.60
59961;DHT22;55902;-37.980;-63.602;2023-05-19T16:22:06;27.90;56.70
59961;DHT22;55902;-37.980;-63.602;2023-05-19T16:24:33;28.00;55.50
59961;DHT22;55902;-37.980;-63.602;2023-05-19T16:27:00;28.10;54.80
59961;DHT22;55902;-37.980;-63.602;2023-05-19T16:29:27;28.20;55.60
59961;DHT22;55902;-37.980;-63.602;2023-05-19T16:31:54;28.00;52.70
59961;DHT22;55902;-37.980;-63.602;2023-05-19T16:34:21;28.00;54.70
59961;DHT22;55902;-37.980;-63.602;2023-05-19T16:36:48;28.10;55.00